Time;durP1;ratioP1;P1;durP2;ratioP2;P2;SDS_P1;SDS_P2;PMS_P1;PMS_P2;Temp;Humidity;BMP_temperature;BMP_pressure;BME280_temperature;BME280_humidity;BME280_pressure;Samples;Min_cycle;Max_cycle;Signal;HPM_P1;HPM_P2
2023/09/22 00:00:11;;;;;;;27.77;16.45;;;;;;;;;;5051123;28;20099;-63
2023/09/22 00:02:38;;;;;;;28.35;16.75;;;;;;;;;;5050710;28;20059;-63
2023/09/22 00:05:04;;;;;;;25.55;16.42;;;;;;;;;;5050991;28;20076;-63
2023/09/22 00:07:30;;;;;;;29.17;17.15;;;;;;;;;;5051134;28;20049;-63
2023/09/22 00:09:56;;;;;;;29.98;17.98;;;;;;;;;;5050889;28;20041;-63
2023/09/22 00:12:22;;;;;;;28.17;17.73;;;;;;;;;;5052453;28;20048;-63
2023/09/22 00:14:48;;;;;;;27.55;17.60;;;;;;;;;;5055313;28;20037;-63
2023/09/22 00:17:16;;;;;;;28.10;17.83;;;;;;;;;;5043758;28;20064;-63
2023/09/22 00:19:43;;;;;;;28.40;17.27;;;;;;;;;;5035417;28;20125;-63
2023/09/22 00:22:09;;;;;;;27.27;17.75;;;;;;;;;;5017470;28;20080;-63
2023/09/22 00:24:35;;;;;;;29.27;18.20;;;;;;;;;;5017101;28;20049;-63
2023/09/22 00:27:02;;;;;;;28.65;16.65;;;;;;;;;;5052972;28;20065;-63
2023/09/22 00:29:28;;;;;;;25.45;16.98;;;;;;;;;;5055292;28;20037;-63
2023/09/22 00:31:54;;;;;;;26.77;16.50;;;;;;;;;;5054343;28;20386;-63
2023/09/22 00:34:20;;;;;;;27.55;16.95;;;;;;;;;;5055159;28;20033;-63
2023/09/22 00:36:46;;;;;;;27.95;18.35;;;;;;;;;;5055096;28;20037;-63
2023/09/22 00:39:12;;;;;;;27.05;17.92;;;;;;;;;;5054501;28;20051;-63
2023/09/22 00:41:38;;;;;;;26.17;16.63;;;;;;;;;;5054802;28;20037;-63
2023/09/22 00:44:05;;;;;;;30.73;19.05;;;;;;;;;;5054601;28;20132;-63
2023/09/22 00:46:31;;;;;;;28.92;17.45;;;;;;;;;;5054198;28;20122;-63
2023/09/22 00:48:57;;;;;;;27.40;17.83;;;;;;;;;;5036901;28;20472;-63
2023/09/22 00:51:23;;;;;;;31.55;17.70;;;;;;;;;;5054412;28;20588;-63
2023/09/22 00:53:50;;;;;;;28.83;18.15;;;;;;;;;;5053876;28;20045;-63
2023/09/22 00:56:21;;;;;;;27.25;17.40;;;;;;;;;;5054621;28;20043;-63
2023/09/22 00:58:48;;;;;;;31.15;18.73;;;;;;;;;;5036949;28;20051;-63
2023/09/22 01:01:14;;;;;;;26.83;17.50;;;;;;;;;;5054211;28;20617;-63
2023/09/22 01:03:40;;;;;;;25.55;17.00;;;;;;;;;;5054512;28;20048;-63
2023/09/22 01:06:09;;;;;;;26.25;17.77;;;;;;;;;;5054360;28;20045;-63
2023/09/22 01:08:36;;;;;;;30.45;19.33;;;;;;;;;;5054210;28;20045;-63
2023/09/22 01:11:02;;;;;;;27.63;17.90;;;;;;;;;;5054437;28;20435;-63
2023/09/22 01:13:28;;;;;;;29.25;17.98;;;;;;;;;;5054230;28;20045;-63
2023/09/22 01:15:54;;;;;;;26.00;17.65;;;;;;;;;;5053585;28;20033;-63
2023/09/22 01:18:20;;;;;;;27.52;17.90;;;;;;;;;;5034263;28;20095;-63
2023/09/22 01:20:46;;;;;;;26.40;18.13;;;;;;;;;;5034302;28;20038;-63
2023/09/22 01:23:13;;;;;;;24.40;17.38;;;;;;;;;;5033065;28;20045;-63
2023/09/22 01:25:40;;;;;;;24.88;17.10;;;;;;;;;;5040150;28;20136;-63
2023/09/22 01:28:06;;;;;;;26.98;18.25;;;;;;;;;;5054085;28;20045;-63
2023/09/22 01:30:33;;;;;;;25.10;17.17;;;;;;;;;;5053770;28;20041;-63
2023/09/22 01:33:01;;;;;;;30.90;18.52;;;;;;;;;;5035820;28;20055;-63
2023/09/22 01:35:27;;;;;;;26.00;17.05;;;;;;;;;;5053841;28;20059;-63
2023/09/22 01:37:55;;;;;;;24.35;17.00;;;;;;;;;;5053793;28;20128;-63
2023/09/22 01:40:21;;;;;;;25.17;17.40;;;;;;;;;;5053892;28;20045;-63
2023/09/22 01:42:47;;;;;;;26.08;17.92;;;;;;;;;;5053934;28;20037;-63
2023/09/22 01:45:14;;;;;;;26.23;17.98;;;;;;;;;;5053339;28;20127;-63
2023/09/22 01:47:40;;;;;;;25.25;17.45;;;;;;;;;;5035607;28;20099;-63
2023/09/22 01:50:07;;;;;;;27.58;18.65;;;;;;;;;;5053500;28;20053;-63
2023/09/22 01:52:33;;;;;;;24.88;17.33;;;;;;;;;;5053139;28;20444;-63
2023/09/22 01:54:59;;;;;;;29.50;18.38;;;;;;;;;;5053439;28;20415;-63
2023/09/22 01:57:25;;;;;;;26.98;18.00;;;;;;;;;;5053570;28;20029;-63
2023/09/22 01:59:51;;;;;;;28.52;18.63;;;;;;;;;;5053082;28;20052;-63
2023/09/22 02:02:17;;;;;;;25.75;17.38;;;;;;;;;;5053409;28;20045;-63
2023/09/22 02:04:43;;;;;;;25.98;17.58;;;;;;;;;;5053400;28;20045;-63
2023/09/22 02:07:10;;;;;;;27.48;17.52;;;;;;;;;;5053035;28;20044;-63
2023/09/22 02:09:36;;;;;;;26.88;17.67;;;;;;;;;;5053136;28;20383;-63
2023/09/22 02:12:02;;;;;;;31.52;19.52;;;;;;;;;;5053440;28;20066;-63
2023/09/22 02:14:28;;;;;;;30.63;17.63;;;;;;;;;;5052416;28;20082;-63
2023/09/22 02:16:54;;;;;;;25.25;17.23;;;;;;;;;;5044681;28;20383;-63
2023/09/22 02:19:20;;;;;;;26.88;17.50;;;;;;;;;;5033292;28;20037;-63
2023/09/22 02:21:46;;;;;;;28.77;16.80;;;;;;;;;;5032671;28;20033;-63
2023/09/22 02:24:12;;;;;;;27.15;16.73;;;;;;;;;;5033065;28;20041;-63
2023/09/22 02:26:39;;;;;;;25.70;16.65;;;;;;;;;;5047916;28;20037;-63
2023/09/22 02:29:05;;;;;;;26.80;16.85;;;;;;;;;;5052640;28;20029;-63
2023/09/22 02:31:32;;;;;;;25.52;16.85;;;;;;;;;;5052656;28;20075;-63
2023/09/22 02:33:58;;;;;;;26.33;16.50;;;;;;;;;;5052717;28;20044;-63
2023/09/22 02:36:24;;;;;;;24.38;16.35;;;;;;;;;;5052443;28;20506;-63
2023/09/22 02:38:50;;;;;;;24.77;16.58;;;;;;;;;;5052921;28;20033;-63
2023/09/22 02:41:16;;;;;;;26.13;16.48;;;;;;;;;;5052479;28;20072;-63
2023/09/22 02:43:42;;;;;;;24.55;16.20;;;;;;;;;;5052741;28;20049;-63
2023/09/22 02:46:08;;;;;;;26.08;16.50;;;;;;;;;;5052691;28;20049;-63
2023/09/22 02:48:34;;;;;;;26.45;17.08;;;;;;;;;;5052755;28;20056;-63
2023/09/22 02:51:00;;;;;;;26.58;17.60;;;;;;;;;;5052273;28;20052;-63
2023/09/22 02:53:27;;;;;;;27.58;16.08;;;;;;;;;;5051987;28;20041;-63
2023/09/22 02:55:53;;;;;;;26.98;17.33;;;;;;;;;;5034554;28;20080;-63
2023/09/22 02:58:19;;;;;;;29.67;17.65;;;;;;;;;;5052474;28;20841;-63
2023/09/22 03:00:45;;;;;;;29.50;17.52;;;;;;;;;;5051846;28;20033;-63
2023/09/22 03:03:14;;;;;;;29.35;17.30;;;;;;;;;;5052237;28;20124;-63
2023/09/22 03:05:40;;;;;;;29.83;17.42;;;;;;;;;;5052023;28;20538;-63
2023/09/22 03:08:06;;;;;;;27.50;16.67;;;;;;;;;;5051769;28;20041;-63
2023/09/22 03:10:32;;;;;;;30.35;17.25;;;;;;;;;;5052165;28;20471;-63
2023/09/22 03:12:58;;;;;;;26.83;17.63;;;;;;;;;;5052085;28;20045;-63
2023/09/22 03:15:25;;;;;;;29.50;18.75;;;;;;;;;;5051497;28;20452;-63
2023/09/22 03:17:51;;;;;;;31.00;18.83;;;;;;;;;;5035821;28;20037;-63
2023/09/22 03:20:17;;;;;;;29.65;18.98;;;;;;;;;;5032013;28;20095;-63
2023/09/22 03:22:44;;;;;;;29.35;17.70;;;;;;;;;;5031536;28;20041;-63
2023/09/22 03:25:14;;;;;;;30.13;18.88;;;;;;;;;;5034557;28;20080;-63
2023/09/22 03:27:40;;;;;;;29.65;18.23;;;;;;;;;;5051992;28;20056;-63
2023/09/22 03:30:07;;;;;;;35.53;18.35;;;;;;;;;;5051723;28;20045;-63
2023/09/22 03:32:35;;;;;;;34.80;18.17;;;;;;;;;;5051694;28;20380;-63
2023/09/22 03:35:03;;;;;;;30.85;18.08;;;;;;;;;;5051745;28;20103;-63
2023/09/22 03:37:32;;;;;;;27.75;16.08;;;;;;;;;;5033179;28;20044;-63
2023/09/22 03:39:58;;;;;;;25.95;15.38;;;;;;;;;;5051521;28;20438;-63
2023/09/22 03:42:27;;;;;;;23.30;14.30;;;;;;;;;;5033589;28;20120;-63
2023/09/22 03:44:53;;;;;;;26.73;14.45;;;;;;;;;;5051241;28;20047;-63
2023/09/22 03:47:20;;;;;;;25.08;14.55;;;;;;;;;;5050802;28;20610;-63
2023/09/22 03:49:46;;;;;;;25.45;14.60;;;;;;;;;;5050881;28;20047;-63
2023/09/22 03:52:14;;;;;;;27.40;16.27;;;;;;;;;;5051023;28;20131;-63
2023/09/22 03:54:40;;;;;;;23.60;14.50;;;;;;;;;;5050932;28;20119;-63
2023/09/22 03:57:06;;;;;;;29.48;16.23;;;;;;;;;;5051556;28;20036;-63
2023/09/22 03:59:32;;;;;;;28.08;15.70;;;;;;;;;;5051075;28;20071;-63
2023/09/22 04:01:59;;;;;;;31.38;16.40;;;;;;;;;;5051397;28;20090;-63
2023/09/22 04:04:29;;;;;;;27.90;17.02;;;;;;;;;;5051117;28;20045;-63
2023/09/22 04:06:56;;;;;;;33.25;17.48;;;;;;;;;;5050921;28;20051;-63
2023/09/22 04:09:22;;;;;;;30.75;16.73;;;;;;;;;;5051369;28;20049;-63
2023/09/22 04:11:49;;;;;;;31.90;17.65;;;;;;;;;;5050954;28;20045;-63
2023/09/22 04:14:15;;;;;;;28.20;16.55;;;;;;;;;;5050753;28;20124;-63
2023/09/22 04:16:41;;;;;;;35.03;18.25;;;;;;;;;;5044596;28;20038;-63
2023/09/22 04:19:09;;;;;;;29.88;17.92;;;;;;;;;;5031132;28;20037;-63
2023/09/22 04:21:42;;;;;;;33.25;18.45;;;;;;;;;;5013107;28;20053;-63
2023/09/22 04:24:12;;;;;;;28.35;17.85;;;;;;;;;;5031109;28;20050;-63
2023/09/22 04:26:45;;;;;;;35.33;18.92;;;;;;;;;;5045671;28;20041;-63
2023/09/22 04:29:11;;;;;;;29.40;18.33;;;;;;;;;;5050213;28;20043;-63
2023/09/22 04:31:37;;;;;;;31.42;19.00;;;;;;;;;;5051113;28;20040;-63
2023/09/22 04:34:03;;;;;;;33.28;18.35;;;;;;;;;;5050602;28;20052;-63
2023/09/22 04:36:31;;;;;;;32.08;19.25;;;;;;;;;;5050454;28;20567;-63
2023/09/22 04:38:57;;;;;;;34.10;19.40;;;;;;;;;;5050723;28;20053;-63
2023/09/22 04:41:23;;;;;;;33.85;19.10;;;;;;;;;;5050844;28;20033;-63
2023/09/22 04:43:49;;;;;;;33.60;18.25;;;;;;;;;;5050533;28;20438;-63
2023/09/22 04:46:15;;;;;;;37.75;20.00;;;;;;;;;;5050734;28;20116;-63
2023/09/22 04:48:42;;;;;;;39.78;20.73;;;;;;;;;;5050853;28;20556;-63
2023/09/22 04:51:08;;;;;;;33.53;19.77;;;;;;;;;;5050235;28;20148;-63
2023/09/22 04:53:34;;;;;;;36.47;21.92;;;;;;;;;;5050887;28;20124;-63
2023/09/22 04:56:03;;;;;;;37.85;21.70;;;;;;;;;;5050599;28;20429;-63
2023/09/22 04:58:29;;;;;;;40.22;21.95;;;;;;;;;;5051263;28;20045;-63
2023/09/22 05:00:57;;;;;;;43.10;23.05;;;;;;;;;;5054476;28;20475;-63
2023/09/22 05:03:24;;;;;;;39.83;21.75;;;;;;;;;;5054344;28;20376;-63
2023/09/22 05:05:51;;;;;;;40.55;22.65;;;;;;;;;;5053468;28;20049;-63
2023/09/22 05:08:17;;;;;;;37.80;23.05;;;;;;;;;;5054482;28;20037;-63
2023/09/22 05:10:47;;;;;;;44.20;24.17;;;;;;;;;;5054157;28;20076;-63
2023/09/22 05:13:13;;;;;;;40.35;23.83;;;;;;;;;;5053734;28;20464;-63
2023/09/22 05:15:41;;;;;;;46.25;24.30;;;;;;;;;;5053934;28;20033;-63
2023/09/22 05:18:12;;;;;;;42.67;24.30;;;;;;;;;;5035359;28;20553;-63
2023/09/22 05:20:39;;;;;;;45.33;25.40;;;;;;;;;;5033648;28;20049;-63
2023/09/22 05:23:06;;;;;;;45.03;25.63;;;;;;;;;;5034033;28;20114;-63
2023/09/22 05:25:33;;;;;;;44.72;24.10;;;;;;;;;;5021521;28;20376;-63
2023/09/22 05:27:59;;;;;;;45.45;25.52;;;;;;;;;;5053650;28;20048;-63
2023/09/22 05:30:25;;;;;;;46.17;25.65;;;;;;;;;;5053604;28;20076;-63
2023/09/22 05:32:51;;;;;;;45.60;25.08;;;;;;;;;;5053879;28;20056;-63
2023/09/22 05:35:17;;;;;;;46.13;25.38;;;;;;;;;;5053045;28;20040;-63
2023/09/22 05:37:43;;;;;;;41.47;24.05;;;;;;;;;;5053717;28;20119;-63
2023/09/22 05:40:12;;;;;;;43.08;24.73;;;;;;;;;;5053576;28;20059;-63
2023/09/22 05:42:38;;;;;;;45.10;24.70;;;;;;;;;;5035519;28;20119;-63
2023/09/22 05:45:05;;;;;;;44.50;23.75;;;;;;;;;;5053624;28;20696;-63
2023/09/22 05:47:34;;;;;;;40.97;23.77;;;;;;;;;;5053452;28;20060;-63
2023/09/22 05:50:02;;;;;;;35.55;21.40;;;;;;;;;;5052902;28;20041;-63
2023/09/22 05:52:28;;;;;;;43.33;23.10;;;;;;;;;;5053341;28;20380;-63
2023/09/22 05:54:54;;;;;;;40.45;22.45;;;;;;;;;;5053493;28;20482;-63
2023/09/22 05:57:20;;;;;;;37.83;22.17;;;;;;;;;;5053052;28;20033;-63
2023/09/22 05:59:47;;;;;;;34.85;21.13;;;;;;;;;;5053230;28;20052;-63
2023/09/22 06:02:13;;;;;;;36.40;21.35;;;;;;;;;;5053316;28;20395;-63
2023/09/22 06:04:39;;;;;;;37.65;20.63;;;;;;;;;;5034442;28;20124;-63
2023/09/22 06:07:12;;;;;;;37.65;20.85;;;;;;;;;;5052950;28;20036;-63
2023/09/22 06:09:38;;;;;;;38.45;20.65;;;;;;;;;;5052697;28;20088;-63
2023/09/22 06:12:04;;;;;;;34.30;19.10;;;;;;;;;;5052530;28;20442;-63
2023/09/22 06:14:30;;;;;;;35.08;20.00;;;;;;;;;;5035135;28;20037;-63
2023/09/22 06:16:56;;;;;;;28.90;18.27;;;;;;;;;;5044563;28;20057;-63
2023/09/22 06:19:22;;;;;;;35.28;18.35;;;;;;;;;;5032545;28;20037;-63
2023/09/22 06:21:48;;;;;;;31.27;17.35;;;;;;;;;;5032966;28;20037;-63
2023/09/22 06:24:15;;;;;;;32.45;17.83;;;;;;;;;;5032899;28;20167;-63
2023/09/22 06:26:41;;;;;;;33.15;18.20;;;;;;;;;;5047541;28;20423;-63
2023/09/22 06:29:07;;;;;;;28.98;15.85;;;;;;;;;;5052569;28;20136;-63
2023/09/22 06:31:33;;;;;;;25.98;16.40;;;;;;;;;;5052699;28;20033;-63
2023/09/22 06:34:00;;;;;;;30.77;17.83;;;;;;;;;;5041594;28;20044;-64
2023/09/22 06:36:26;;;;;;;30.60;16.30;;;;;;;;;;5054334;28;20115;-63
2023/09/22 06:38:52;;;;;;;37.65;16.88;;;;;;;;;;5067580;28;20067;-63
2023/09/22 06:41:18;;;;;;;29.15;17.60;;;;;;;;;;5066051;28;20048;-65
2023/09/22 06:43:46;;;;;;;28.83;17.58;;;;;;;;;;5053923;28;20127;-63
2023/09/22 06:46:14;;;;;;;28.83;17.17;;;;;;;;;;5071558;28;20049;-63
2023/09/22 06:48:40;;;;;;;29.98;16.10;;;;;;;;;;5071303;28;20398;-63
2023/09/22 06:51:06;;;;;;;33.15;16.83;;;;;;;;;;5071528;28;20060;-63
2023/09/22 06:53:34;;;;;;;30.92;16.80;;;;;;;;;;5071693;28;20087;-63
2023/09/22 06:56:06;;;;;;;29.08;16.20;;;;;;;;;;5071058;28;20055;-63
2023/09/22 06:58:36;;;;;;;28.25;16.50;;;;;;;;;;5070539;28;20048;-63
2023/09/22 07:01:11;;;;;;;25.27;15.98;;;;;;;;;;5071606;28;20036;-63
2023/09/22 07:03:38;;;;;;;26.65;15.80;;;;;;;;;;5065091;28;20219;-63
2023/09/22 07:06:08;;;;;;;33.85;16.63;;;;;;;;;;5054986;28;20052;-63
2023/09/22 07:08:35;;;;;;;27.45;15.98;;;;;;;;;;5063307;28;20044;-63
2023/09/22 07:11:02;;;;;;;25.45;15.55;;;;;;;;;;5071010;28;20040;-63
2023/09/22 07:13:29;;;;;;;28.13;16.05;;;;;;;;;;5070976;28;20063;-63
2023/09/22 07:15:55;;;;;;;26.50;16.08;;;;;;;;;;5070841;28;20486;-63
2023/09/22 07:18:21;;;;;;;26.10;15.20;;;;;;;;;;5046498;28;20037;-63
2023/09/22 07:20:49;;;;;;;25.83;14.65;;;;;;;;;;5054449;28;20487;-63
2023/09/22 07:23:15;;;;;;;27.08;14.32;;;;;;;;;;5069883;28;20052;-63
2023/09/22 07:25:41;;;;;;;29.35;14.55;;;;;;;;;;5044085;28;20823;-63
2023/09/22 07:28:08;;;;;;;25.33;15.98;;;;;;;;;;5029481;28;20071;-63
2023/09/22 07:30:34;;;;;;;25.73;14.88;;;;;;;;;;5050947;28;20049;-63
2023/09/22 07:33:00;;;;;;;19.85;13.38;;;;;;;;;;5050490;28;20060;-63
2023/09/22 07:35:26;;;;;;;21.90;13.00;;;;;;;;;;5036482;28;20395;-62
2023/09/22 07:37:52;;;;;;;20.30;13.75;;;;;;;;;;5032415;28;20124;-62
2023/09/22 07:40:19;;;;;;;25.23;12.88;;;;;;;;;;5062624;28;20041;-62
2023/09/22 07:42:45;;;;;;;23.70;12.85;;;;;;;;;;5068783;28;20040;-62
2023/09/22 07:45:12;;;;;;;22.83;12.93;;;;;;;;;;5050362;28;20056;-62
2023/09/22 07:47:38;;;;;;;17.85;11.90;;;;;;;;;;5049057;28;20116;-62
2023/09/22 07:50:06;;;;;;;15.68;10.80;;;;;;;;;;5049352;28;20061;-62
2023/09/22 07:52:32;;;;;;;22.58;11.75;;;;;;;;;;5049911;28;20049;-62
2023/09/22 07:54:58;;;;;;;18.05;11.02;;;;;;;;;;5048632;28;20036;-62
2023/09/22 07:57:25;;;;;;;16.80;10.70;;;;;;;;;;5049703;28;20454;-62
2023/09/22 07:59:51;;;;;;;19.05;11.05;;;;;;;;;;5049464;28;20040;-62
2023/09/22 08:02:18;;;;;;;18.63;11.15;;;;;;;;;;5049023;28;20041;-62
2023/09/22 08:04:44;;;;;;;20.45;10.48;;;;;;;;;;5049282;28;20040;-62
2023/09/22 08:07:10;;;;;;;14.23;9.73;;;;;;;;;;5049361;28;20049;-62
2023/09/22 08:09:37;;;;;;;14.88;9.88;;;;;;;;;;5049285;28;20060;-62
2023/09/22 08:12:05;;;;;;;15.00;9.10;;;;;;;;;;5049340;28;20052;-62
2023/09/22 08:14:31;;;;;;;19.63;10.35;;;;;;;;;;5049353;28;20127;-62
2023/09/22 08:16:57;;;;;;;14.27;9.27;;;;;;;;;;5039993;28;20109;-62
2023/09/22 08:19:23;;;;;;;14.15;8.20;;;;;;;;;;5011919;28;20045;-62
2023/09/22 08:21:49;;;;;;;14.65;8.82;;;;;;;;;;5029341;28;20042;-62
2023/09/22 08:24:15;;;;;;;15.27;7.90;;;;;;;;;;5028883;28;20044;-62
2023/09/22 08:26:42;;;;;;;15.75;7.30;;;;;;;;;;5044302;28;20159;-62
2023/09/22 08:29:09;;;;;;;13.77;7.78;;;;;;;;;;5048982;28;20501;-62
2023/09/22 08:31:35;;;;;;;11.13;6.32;;;;;;;;;;5048799;28;20395;-62
2023/09/22 08:34:02;;;;;;;10.60;6.30;;;;;;;;;;5027863;28;20095;-63
2023/09/22 08:36:28;;;;;;;8.73;5.57;;;;;;;;;;5053241;28;20145;-63
2023/09/22 08:38:55;;;;;;;7.72;5.60;;;;;;;;;;5053076;28;20041;-63
2023/09/22 08:41:23;;;;;;;8.35;5.15;;;;;;;;;;5052801;28;20037;-63
2023/09/22 08:43:49;;;;;;;9.55;4.82;;;;;;;;;;5035042;28;20045;-62
2023/09/22 08:46:15;;;;;;;5.68;3.97;;;;;;;;;;5052892;28;20041;-62
2023/09/22 08:48:41;;;;;;;5.78;3.70;;;;;;;;;;5034232;28;20102;-62
2023/09/22 08:51:09;;;;;;;7.00;4.00;;;;;;;;;;5052883;28;20053;-63
2023/09/22 08:53:36;;;;;;;8.52;4.38;;;;;;;;;;5042415;28;20082;-63
2023/09/22 08:56:04;;;;;;;8.90;3.67;;;;;;;;;;5045837;28;20481;-63
2023/09/22 08:58:30;;;;;;;4.57;2.92;;;;;;;;;;5032440;28;20052;-63
2023/09/22 09:00:56;;;;;;;7.15;3.60;;;;;;;;;;5068143;28;20043;-63
2023/09/22 09:03:22;;;;;;;6.85;3.47;;;;;;;;;;5044090;28;20453;-63
2023/09/22 09:05:52;;;;;;;6.40;2.90;;;;;;;;;;5040860;28;20041;-63
2023/09/22 09:08:21;;;;;;;3.97;2.45;;;;;;;;;;5041942;28;20053;-63
2023/09/22 09:10:48;;;;;;;5.30;2.60;;;;;;;;;;5039049;28;20076;-63
2023/09/22 09:13:15;;;;;;;11.23;3.40;;;;;;;;;;5047831;28;20542;-63
2023/09/22 09:15:42;;;;;;;6.68;2.88;;;;;;;;;;5055677;28;20051;-63
2023/09/22 09:18:11;;;;;;;4.10;2.60;;;;;;;;;;5063159;28;20048;-63
2023/09/22 09:20:40;;;;;;;6.30;2.67;;;;;;;;;;5053625;28;20079;-63
2023/09/22 09:23:12;;;;;;;5.03;2.17;;;;;;;;;;5071122;28;20052;-63
2023/09/22 09:25:45;;;;;;;3.63;2.40;;;;;;;;;;5056370;28;20442;-63
2023/09/22 09:28:12;;;;;;;2.55;2.10;;;;;;;;;;5061586;28;20055;-63
2023/09/22 09:30:38;;;;;;;4.03;2.10;;;;;;;;;;5054430;28;20059;-63
2023/09/22 09:33:09;;;;;;;4.45;2.10;;;;;;;;;;5051847;28;20128;-63
2023/09/22 09:35:35;;;;;;;5.45;2.28;;;;;;;;;;5046194;28;20405;-63
2023/09/22 09:38:05;;;;;;;10.20;3.10;;;;;;;;;;5058030;28;20045;-63
2023/09/22 09:40:32;;;;;;;3.70;2.08;;;;;;;;;;5051958;28;20037;-63
2023/09/22 09:42:59;;;;;;;3.92;2.03;;;;;;;;;;5068273;28;20088;-63
2023/09/22 09:45:29;;;;;;;6.43;2.05;;;;;;;;;;5034279;28;20038;-63
2023/09/22 09:47:55;;;;;;;3.95;2.00;;;;;;;;;;5054025;28;20391;-63
2023/09/22 09:50:21;;;;;;;3.42;1.30;;;;;;;;;;5061349;28;20064;-63
2023/09/22 09:52:48;;;;;;;2.70;1.27;;;;;;;;;;5066263;28;20051;-63
2023/09/22 09:55:15;;;;;;;2.28;1.00;;;;;;;;;;5052721;28;20426;-63
2023/09/22 09:57:43;;;;;;;3.13;1.15;;;;;;;;;;5046596;28;20048;-63
2023/09/22 10:00:18;;;;;;;2.60;1.20;;;;;;;;;;5060652;28;20051;-63
2023/09/22 10:02:45;;;;;;;5.00;1.20;;;;;;;;;;5056999;28;20044;-63
2023/09/22 10:05:15;;;;;;;3.20;1.30;;;;;;;;;;5053850;28;20323;-63
2023/09/22 10:07:45;;;;;;;3.83;1.30;;;;;;;;;;5054804;28;20040;-63
2023/09/22 10:10:12;;;;;;;2.85;1.10;;;;;;;;;;5051087;28;20037;-63
2023/09/22 10:12:39;;;;;;;3.30;1.30;;;;;;;;;;5059256;28;20045;-63
2023/09/22 10:15:05;;;;;;;3.38;1.25;;;;;;;;;;5039477;28;20083;-63
2023/09/22 10:17:35;;;;;;;2.15;0.82;;;;;;;;;;5048708;28;20037;-63
2023/09/22 10:20:03;;;;;;;1.75;0.88;;;;;;;;;;5025010;28;20488;-63
2023/09/22 10:22:29;;;;;;;2.15;1.00;;;;;;;;;;5043735;28;20053;-63
2023/09/22 10:25:14;;;;;;;5.15;1.17;;;;;;;;;;5061497;28;20045;-63
2023/09/22 10:27:54;;;;;;;5.13;0.90;;;;;;;;;;5049936;28;20044;-63
2023/09/22 10:30:20;;;;;;;3.70;1.20;;;;;;;;;;5048950;28;20120;-63
2023/09/22 10:32:46;;;;;;;4.43;1.30;;;;;;;;;;5048140;28;20130;-63
2023/09/22 10:35:14;;;;;;;1.60;1.10;;;;;;;;;;5034123;28;20500;-63
2023/09/22 10:37:56;;;;;;;1.27;1.00;;;;;;;;;;5056917;28;20040;-63
2023/09/22 10:40:23;;;;;;;3.60;1.30;;;;;;;;;;5060549;28;20090;-63
2023/09/22 10:42:50;;;;;;;6.15;2.22;;;;;;;;;;5069336;28;20047;-63
2023/09/22 10:45:17;;;;;;;2.60;1.15;;;;;;;;;;5056094;28;20051;-63
2023/09/22 10:47:43;;;;;;;2.70;1.27;;;;;;;;;;5060742;28;20094;-63
2023/09/22 10:50:17;;;;;;;1.67;1.00;;;;;;;;;;5056468;28;20053;-64
2023/09/22 10:52:49;;;;;;;3.42;1.58;;;;;;;;;;5050570;28;20103;-63
2023/09/22 10:55:21;;;;;;;4.35;1.48;;;;;;;;;;5069217;28;20127;-63
2023/09/22 10:57:47;;;;;;;;;;;;;;;;;;5069657;28;20045;-63
2023/09/22 11:00:18;;;;;;;4.93;1.40;;;;;;;;;;5069429;28;19917;-63
2023/09/22 11:02:44;;;;;;;2.22;1.63;;;;;;;;;;5052359;28;20073;-63
2023/09/22 11:05:13;;;;;;;2.20;1.40;;;;;;;;;;5048032;28;20045;-63
2023/09/22 11:07:44;;;;;;;2.28;1.50;;;;;;;;;;5037327;28;20407;-63
2023/09/22 11:10:18;;;;;;;5.00;1.85;;;;;;;;;;5053795;28;20083;-63
2023/09/22 11:12:48;;;;;;;1.98;1.30;;;;;;;;;;5030233;28;20541;-63
2023/09/22 11:15:14;;;;;;;3.22;1.17;;;;;;;;;;5054810;28;20300;-63
2023/09/22 11:17:47;;;;;;;2.35;1.20;;;;;;;;;;5063624;28;20068;-63
2023/09/22 11:20:18;;;;;;;1.40;1.30;;;;;;;;;;5057490;28;20097;-63
2023/09/22 11:22:45;;;;;;;5.97;1.30;;;;;;;;;;5049848;28;20044;-63
2023/09/22 11:25:11;;;;;;;2.45;1.10;;;;;;;;;;5062210;28;20792;-63
2023/09/22 11:27:45;;;;;;;1.17;1.05;;;;;;;;;;5036984;28;20066;-63
2023/09/22 11:30:16;;;;;;;3.15;1.08;;;;;;;;;;5040004;28;20045;-63
2023/09/22 11:32:43;;;;;;;1.73;1.13;;;;;;;;;;5052286;28;20094;-63
2023/09/22 11:35:09;;;;;;;2.80;1.60;;;;;;;;;;5069052;28;20127;-63
2023/09/22 11:37:35;;;;;;;1.73;1.15;;;;;;;;;;5066385;28;20044;-63
2023/09/22 11:40:12;;;;;;;2.42;1.27;;;;;;;;;;5038294;28;20041;-64
2023/09/22 11:42:38;;;;;;;2.00;1.38;;;;;;;;;;5043621;28;20116;-63
2023/09/22 11:45:05;;;;;;;1.92;1.38;;;;;;;;;;5052180;28;20041;-63
2023/09/22 11:47:31;;;;;;;3.05;1.42;;;;;;;;;;5048568;28;20044;-63
2023/09/22 11:49:57;;;;;;;2.45;1.60;;;;;;;;;;5049311;28;20110;-64
2023/09/22 11:52:30;;;;;;;2.58;1.75;;;;;;;;;;5045456;28;20430;-63
2023/09/22 11:54:57;;;;;;;2.83;1.58;;;;;;;;;;5035720;28;20738;-63
2023/09/22 11:57:23;;;;;;;2.45;1.52;;;;;;;;;;5048915;28;20384;-63
2023/09/22 11:59:49;;;;;;;3.20;1.45;;;;;;;;;;5046045;28;20033;-63
2023/09/22 12:02:15;;;;;;;2.90;1.52;;;;;;;;;;5049322;28;20037;-63
2023/09/22 12:04:42;;;;;;;2.30;1.67;;;;;;;;;;5046181;28;20060;-63
2023/09/22 12:07:08;;;;;;;2.80;1.70;;;;;;;;;;5031441;28;20518;-63
2023/09/22 12:09:34;;;;;;;2.42;1.50;;;;;;;;;;5028945;28;20045;-63
2023/09/22 12:12:00;;;;;;;4.22;1.52;;;;;;;;;;5029591;28;20484;-63
2023/09/22 12:14:26;;;;;;;1.85;1.50;;;;;;;;;;5029088;28;20476;-63
2023/09/22 12:16:52;;;;;;;1.77;1.67;;;;;;;;;;5037548;28;20041;-63
2023/09/22 12:19:19;;;;;;;3.15;1.42;;;;;;;;;;5049527;28;20079;-63
2023/09/22 12:21:46;;;;;;;1.65;1.45;;;;;;;;;;5049168;28;20041;-63
2023/09/22 12:24:13;;;;;;;1.85;1.48;;;;;;;;;;5049365;28;20044;-63
2023/09/22 12:26:39;;;;;;;1.55;1.17;;;;;;;;;;5034570;28;20150;-63
2023/09/22 12:29:05;;;;;;;2.05;1.30;;;;;;;;;;5029169;28;20092;-63
2023/09/22 12:31:33;;;;;;;1.45;1.25;;;;;;;;;;5028878;28;20047;-63
2023/09/22 12:34:00;;;;;;;2.03;1.45;;;;;;;;;;5029003;28;20400;-62
2023/09/22 12:36:26;;;;;;;2.13;1.20;;;;;;;;;;5028617;28;20045;-63
2023/09/22 12:38:53;;;;;;;1.75;1.60;;;;;;;;;;5029422;28;20124;-63
2023/09/22 12:41:18;;;;;;;3.03;1.30;;;;;;;;;;5025459;28;20037;-63
2023/09/22 12:43:44;;;;;;;2.63;1.42;;;;;;;;;;5049516;28;20094;-64
2023/09/22 12:46:13;;;;;;;1.98;1.50;;;;;;;;;;5032161;28;20049;-64
2023/09/22 12:48:40;;;;;;;2.65;1.30;;;;;;;;;;5049878;28;20048;-63
2023/09/22 12:51:07;;;;;;;2.30;1.30;;;;;;;;;;5048494;28;20110;-63
2023/09/22 12:53:33;;;;;;;4.90;1.77;;;;;;;;;;5049508;28;20063;-63
2023/09/22 12:55:59;;;;;;;2.88;1.10;;;;;;;;;;5049286;28;20041;-63
2023/09/22 12:58:26;;;;;;;3.55;1.63;;;;;;;;;;5049118;28;20124;-63
2023/09/22 13:01:04;;;;;;;2.10;1.05;;;;;;;;;;5049271;28;20045;-63
2023/09/22 13:03:31;;;;;;;2.47;1.17;;;;;;;;;;5049966;28;20153;-64
2023/09/22 13:06:00;;;;;;;6.57;1.55;;;;;;;;;;5049176;28;20088;-64
2023/09/22 13:08:27;;;;;;;3.42;1.42;;;;;;;;;;5049904;28;20091;-63
2023/09/22 13:10:53;;;;;;;6.38;1.58;;;;;;;;;;5049179;28;20045;-64
2023/09/22 13:13:19;;;;;;;2.05;1.48;;;;;;;;;;5049281;28;20499;-63
2023/09/22 13:15:47;;;;;;;1.65;1.30;;;;;;;;;;5049450;28;20037;-62
2023/09/22 13:18:13;;;;;;;1.95;1.20;;;;;;;;;;5049863;28;20041;-62
2023/09/22 13:20:40;;;;;;;1.58;1.00;;;;;;;;;;5050801;28;20052;-62
2023/09/22 13:23:07;;;;;;;2.30;1.30;;;;;;;;;;5053798;28;20399;-64
2023/09/22 13:25:37;;;;;;;3.47;1.30;;;;;;;;;;5047708;28;20411;-62
2023/09/22 13:28:04;;;;;;;3.40;1.42;;;;;;;;;;5033570;28;20045;-62
2023/09/22 13:30:30;;;;;;;2.80;1.27;;;;;;;;;;5032772;28;20102;-62
2023/09/22 13:32:57;;;;;;;2.00;1.20;;;;;;;;;;5015503;28;20490;-62
2023/09/22 13:35:23;;;;;;;1.45;1.10;;;;;;;;;;5015554;28;20179;-62
2023/09/22 13:37:50;;;;;;;3.00;1.30;;;;;;;;;;5033280;28;20424;-62
2023/09/22 13:40:17;;;;;;;2.55;1.50;;;;;;;;;;5033090;28;20045;-62
2023/09/22 13:42:44;;;;;;;3.85;1.33;;;;;;;;;;5015479;28;20060;-62
2023/09/22 13:45:10;;;;;;;1.88;1.20;;;;;;;;;;5033065;28;20407;-62
2023/09/22 13:47:36;;;;;;;2.65;1.55;;;;;;;;;;5033472;28;20084;-63
2023/09/22 13:50:03;;;;;;;3.50;1.27;;;;;;;;;;5032818;28;20037;-63
2023/09/22 13:52:29;;;;;;;2.10;1.15;;;;;;;;;;5032958;28;20139;-62
2023/09/22 13:54:55;;;;;;;3.45;1.48;;;;;;;;;;5033205;28;20041;-62
2023/09/22 13:57:21;;;;;;;2.00;1.13;;;;;;;;;;5032621;28;20038;-61
2023/09/22 13:59:47;;;;;;;2.53;1.02;;;;;;;;;;5033153;28;20388;-62
2023/09/22 14:02:13;;;;;;;2.33;1.20;;;;;;;;;;5032733;28;20379;-62
2023/09/22 14:04:40;;;;;;;5.78;1.65;;;;;;;;;;5032145;28;20055;-62
2023/09/22 14:07:07;;;;;;;3.50;1.67;;;;;;;;;;5032100;28;20061;-62
2023/09/22 14:09:34;;;;;;;5.60;1.67;;;;;;;;;;5032595;28;20040;-63
2023/09/22 14:12:00;;;;;;;2.72;1.30;;;;;;;;;;5032230;28;20049;-62
2023/09/22 14:14:26;;;;;;;4.45;1.30;;;;;;;;;;5032226;28;20037;-63
2023/09/22 14:16:53;;;;;;;2.65;1.40;;;;;;;;;;5040578;28;20112;-63
2023/09/22 14:19:19;;;;;;;4.32;1.50;;;;;;;;;;5052321;28;20037;-63
2023/09/22 14:21:45;;;;;;;3.53;1.40;;;;;;;;;;5051968;28;20040;-63
2023/09/22 14:24:12;;;;;;;1.90;1.25;;;;;;;;;;5050587;28;20048;-62
2023/09/22 14:26:39;;;;;;;4.68;1.38;;;;;;;;;;5036176;28;20080;-62